sensor_id;sensor_type;location;lat;lon;timestamp;P1;durP1;ratioP1;P2;durP2;ratioP2
7110;SDS011;3597;42.650;23.386;2022-10-16T00:00:38;13.67;;;13.27;;
7110;SDS011;3597;42.650;23.386;2022-10-16T00:03:11;13.87;;;13.37;;
7110;SDS011;3597;42.650;23.386;2022-10-16T00:05:41;13.93;;;13.50;;
7110;SDS011;3597;42.650;23.386;2022-10-16T00:08:07;14.27;;;13.67;;
7110;SDS011;3597;42.650;23.386;2022-10-16T00:10:34;13.00;;;12.60;;
7110;SDS011;3597;42.650;23.386;2022-10-16T00:13:00;14.00;;;13.50;;
7110;SDS011;3597;42.650;23.386;2022-10-16T00:15:25;14.77;;;14.27;;
7110;SDS011;3597;42.650;23.386;2022-10-16T00:17:51;13.90;;;13.40;;
7110;SDS011;3597;42.650;23.386;2022-10-16T00:20:16;13.20;;;12.80;;
7110;SDS011;3597;42.650;23.386;2022-10-16T00:22:42;13.33;;;12.93;;
7110;SDS011;3597;42.650;23.386;2022-10-16T00:25:07;14.00;;;13.40;;
7110;SDS011;3597;42.650;23.386;2022-10-16T00:27:33;13.13;;;12.63;;
7110;SDS011;3597;42.650;23.386;2022-10-16T00:29:59;11.80;;;11.40;;
7110;SDS011;3597;42.650;23.386;2022-10-16T00:32:24;10.67;;;10.37;;
7110;SDS011;3597;42.650;23.386;2022-10-16T00:34:50;10.70;;;10.40;;
7110;SDS011;3597;42.650;23.386;2022-10-16T00:37:16;9.70;;;9.50;;
7110;SDS011;3597;42.650;23.386;2022-10-16T00:39:41;8.53;;;8.13;;
7110;SDS011;3597;42.650;23.386;2022-10-16T00:42:09;7.17;;;6.97;;
7110;SDS011;3597;42.650;23.386;2022-10-16T00:44:43;6.17;;;6.07;;
7110;SDS011;3597;42.650;23.386;2022-10-16T00:47:10;5.93;;;5.70;;
7110;SDS011;3597;42.650;23.386;2022-10-16T00:49:37;5.40;;;5.13;;
7110;SDS011;3597;42.650;23.386;2022-10-16T00:52:03;4.17;;;4.07;;
7110;SDS011;3597;42.650;23.386;2022-10-16T00:54:29;3.33;;;3.23;;
7110;SDS011;3597;42.650;23.386;2022-10-16T00:56:58;3.20;;;3.10;;
7110;SDS011;3597;42.650;23.386;2022-10-16T00:59:30;3.00;;;2.90;;
7110;SDS011;3597;42.650;23.386;2022-10-16T01:02:01;3.33;;;3.13;;
7110;SDS011;3597;42.650;23.386;2022-10-16T01:04:26;3.00;;;2.90;;
7110;SDS011;3597;42.650;23.386;2022-10-16T01:14:40;1.90;;;1.90;;
7110;SDS011;3597;42.650;23.386;2022-10-16T01:17:12;1.90;;;1.90;;
7110;SDS011;3597;42.650;23.386;2022-10-16T01:19:48;2.00;;;2.00;;
7110;SDS011;3597;42.650;23.386;2022-10-16T01:22:16;2.00;;;2.00;;
7110;SDS011;3597;42.650;23.386;2022-10-16T01:24:46;2.13;;;2.13;;
7110;SDS011;3597;42.650;23.386;2022-10-16T01:29:56;2.10;;;2.10;;
7110;SDS011;3597;42.650;23.386;2022-10-16T01:32:37;2.40;;;2.40;;
7110;SDS011;3597;42.650;23.386;2022-10-16T01:35:14;2.80;;;2.73;;
7110;SDS011;3597;42.650;23.386;2022-10-16T01:37:48;2.47;;;2.47;;
7110;SDS011;3597;42.650;23.386;2022-10-16T01:40:16;2.53;;;2.53;;
7110;SDS011;3597;42.650;23.386;2022-10-16T01:42:46;2.43;;;2.43;;
7110;SDS011;3597;42.650;23.386;2022-10-16T01:45:15;2.80;;;2.80;;
7110;SDS011;3597;42.650;23.386;2022-10-16T01:47:43;2.30;;;2.30;;
7110;SDS011;3597;42.650;23.386;2022-10-16T01:50:09;2.27;;;2.27;;
7110;SDS011;3597;42.650;23.386;2022-10-16T01:52:35;2.10;;;2.10;;
7110;SDS011;3597;42.650;23.386;2022-10-16T01:55:03;1.90;;;1.90;;
7110;SDS011;3597;42.650;23.386;2022-10-16T01:57:30;2.20;;;2.20;;
7110;SDS011;3597;42.650;23.386;2022-10-16T01:59:58;2.13;;;2.13;;
7110;SDS011;3597;42.650;23.386;2022-10-16T02:02:28;2.20;;;2.17;;
7110;SDS011;3597;42.650;23.386;2022-10-16T02:05:02;2.17;;;2.17;;
7110;SDS011;3597;42.650;23.386;2022-10-16T02:07:30;1.80;;;1.80;;
7110;SDS011;3597;42.650;23.386;2022-10-16T02:09:55;2.13;;;2.13;;
7110;SDS011;3597;42.650;23.386;2022-10-16T02:12:28;2.17;;;2.17;;
7110;SDS011;3597;42.650;23.386;2022-10-16T02:14:56;1.60;;;1.60;;
7110;SDS011;3597;42.650;23.386;2022-10-16T02:17:22;1.80;;;1.80;;
7110;SDS011;3597;42.650;23.386;2022-10-16T02:19:48;1.80;;;1.80;;
7110;SDS011;3597;42.650;23.386;2022-10-16T02:22:15;2.23;;;2.17;;
7110;SDS011;3597;42.650;23.386;2022-10-16T02:27:43;1.83;;;1.80;;
7110;SDS011;3597;42.650;23.386;2022-10-16T02:30:25;1.60;;;1.60;;
7110;SDS011;3597;42.650;23.386;2022-10-16T02:32:54;1.70;;;1.70;;
7110;SDS011;3597;42.650;23.386;2022-10-16T02:35:21;1.70;;;1.70;;
7110;SDS011;3597;42.650;23.386;2022-10-16T02:37:47;1.97;;;1.97;;
7110;SDS011;3597;42.650;23.386;2022-10-16T02:40:14;1.90;;;1.90;;
7110;SDS011;3597;42.650;23.386;2022-10-16T02:42:40;1.63;;;1.63;;
7110;SDS011;3597;42.650;23.386;2022-10-16T02:45:07;2.10;;;2.00;;
7110;SDS011;3597;42.650;23.386;2022-10-16T02:47:34;1.57;;;1.57;;
7110;SDS011;3597;42.650;23.386;2022-10-16T02:49:59;1.40;;;1.40;;
7110;SDS011;3597;42.650;23.386;2022-10-16T02:52:25;1.50;;;1.50;;
7110;SDS011;3597;42.650;23.386;2022-10-16T02:54:50;1.70;;;1.70;;
7110;SDS011;3597;42.650;23.386;2022-10-16T02:57:16;1.40;;;1.40;;
7110;SDS011;3597;42.650;23.386;2022-10-16T02:59:42;1.87;;;1.77;;
7110;SDS011;3597;42.650;23.386;2022-10-16T03:02:07;1.50;;;1.50;;
7110;SDS011;3597;42.650;23.386;2022-10-16T03:04:33;1.67;;;1.67;;
7110;SDS011;3597;42.650;23.386;2022-10-16T03:06:59;1.70;;;1.70;;
7110;SDS011;3597;42.650;23.386;2022-10-16T03:09:24;1.70;;;1.70;;
7110;SDS011;3597;42.650;23.386;2022-10-16T03:11:49;1.93;;;1.93;;
7110;SDS011;3597;42.650;23.386;2022-10-16T03:14:15;1.73;;;1.73;;
7110;SDS011;3597;42.650;23.386;2022-10-16T03:16:40;2.00;;;2.00;;
7110;SDS011;3597;42.650;23.386;2022-10-16T03:19:06;2.07;;;2.07;;
7110;SDS011;3597;42.650;23.386;2022-10-16T03:21:31;1.77;;;1.77;;
7110;SDS011;3597;42.650;23.386;2022-10-16T03:23:56;2.27;;;2.27;;
7110;SDS011;3597;42.650;23.386;2022-10-16T03:26:22;1.97;;;1.97;;
7110;SDS011;3597;42.650;23.386;2022-10-16T03:28:47;2.20;;;2.20;;
7110;SDS011;3597;42.650;23.386;2022-10-16T03:31:12;1.87;;;1.87;;
7110;SDS011;3597;42.650;23.386;2022-10-16T03:33:38;2.00;;;2.00;;
7110;SDS011;3597;42.650;23.386;2022-10-16T03:36:03;1.83;;;1.83;;
7110;SDS011;3597;42.650;23.386;2022-10-16T03:38:29;3.07;;;2.97;;
7110;SDS011;3597;42.650;23.386;2022-10-16T03:40:54;1.93;;;1.93;;
7110;SDS011;3597;42.650;23.386;2022-10-16T03:43:20;1.87;;;1.87;;
7110;SDS011;3597;42.650;23.386;2022-10-16T03:45:45;2.13;;;2.13;;
7110;SDS011;3597;42.650;23.386;2022-10-16T03:48:10;1.90;;;1.90;;
7110;SDS011;3597;42.650;23.386;2022-10-16T03:50:36;1.87;;;1.87;;
7110;SDS011;3597;42.650;23.386;2022-10-16T03:53:01;1.77;;;1.77;;
7110;SDS011;3597;42.650;23.386;2022-10-16T03:55:27;2.13;;;2.13;;
7110;SDS011;3597;42.650;23.386;2022-10-16T03:57:52;1.93;;;1.93;;
7110;SDS011;3597;42.650;23.386;2022-10-16T04:00:17;2.10;;;2.10;;
7110;SDS011;3597;42.650;23.386;2022-10-16T04:02:43;2.40;;;2.40;;
7110;SDS011;3597;42.650;23.386;2022-10-16T04:05:08;2.30;;;2.30;;
7110;SDS011;3597;42.650;23.386;2022-10-16T04:07:34;1.70;;;1.70;;
7110;SDS011;3597;42.650;23.386;2022-10-16T04:09:59;9.77;;;9.47;;
7110;SDS011;3597;42.650;23.386;2022-10-16T04:12:25;1.73;;;1.73;;
7110;SDS011;3597;42.650;23.386;2022-10-16T04:14:51;2.13;;;2.13;;
7110;SDS011;3597;42.650;23.386;2022-10-16T04:17:16;3.23;;;2.10;;
7110;SDS011;3597;42.650;23.386;2022-10-16T04:19:42;2.33;;;2.33;;
7110;SDS011;3597;42.650;23.386;2022-10-16T04:22:07;2.60;;;2.60;;
7110;SDS011;3597;42.650;23.386;2022-10-16T04:24:32;2.20;;;2.20;;
7110;SDS011;3597;42.650;23.386;2022-10-16T04:26:58;2.33;;;2.33;;
7110;SDS011;3597;42.650;23.386;2022-10-16T04:29:23;2.77;;;2.67;;
7110;SDS011;3597;42.650;23.386;2022-10-16T04:31:49;2.70;;;2.70;;
7110;SDS011;3597;42.650;23.386;2022-10-16T04:34:14;1.93;;;1.93;;
7110;SDS011;3597;42.650;23.386;2022-10-16T04:36:39;2.83;;;2.73;;
7110;SDS011;3597;42.650;23.386;2022-10-16T04:39:05;2.23;;;2.23;;
7110;SDS011;3597;42.650;23.386;2022-10-16T04:41:30;2.83;;;2.83;;
7110;SDS011;3597;42.650;23.386;2022-10-16T04:43:56;2.70;;;2.70;;
7110;SDS011;3597;42.650;23.386;2022-10-16T04:46:21;1.93;;;1.93;;
7110;SDS011;3597;42.650;23.386;2022-10-16T04:48:46;2.80;;;2.70;;
7110;SDS011;3597;42.650;23.386;2022-10-16T04:51:12;2.43;;;2.43;;
7110;SDS011;3597;42.650;23.386;2022-10-16T04:53:37;2.00;;;2.00;;
7110;SDS011;3597;42.650;23.386;2022-10-16T04:56:03;2.50;;;2.43;;
7110;SDS011;3597;42.650;23.386;2022-10-16T04:58:28;2.00;;;1.90;;
7110;SDS011;3597;42.650;23.386;2022-10-16T05:00:54;1.80;;;1.80;;
7110;SDS011;3597;42.650;23.386;2022-10-16T05:03:19;1.80;;;1.80;;
7110;SDS011;3597;42.650;23.386;2022-10-16T05:05:45;1.87;;;1.87;;
7110;SDS011;3597;42.650;23.386;2022-10-16T05:08:15;1.60;;;1.60;;
7110;SDS011;3597;42.650;23.386;2022-10-16T05:10:41;1.77;;;1.77;;
7110;SDS011;3597;42.650;23.386;2022-10-16T05:13:07;1.70;;;1.70;;
7110;SDS011;3597;42.650;23.386;2022-10-16T05:15:33;1.60;;;1.60;;
7110;SDS011;3597;42.650;23.386;2022-10-16T05:17:59;1.87;;;1.87;;
7110;SDS011;3597;42.650;23.386;2022-10-16T05:20:24;2.17;;;2.17;;
7110;SDS011;3597;42.650;23.386;2022-10-16T05:22:49;2.37;;;2.37;;
7110;SDS011;3597;42.650;23.386;2022-10-16T05:25:15;1.90;;;1.80;;
7110;SDS011;3597;42.650;23.386;2022-10-16T05:27:41;1.90;;;1.90;;
7110;SDS011;3597;42.650;23.386;2022-10-16T05:30:06;2.00;;;2.00;;
7110;SDS011;3597;42.650;23.386;2022-10-16T05:32:32;1.80;;;1.80;;
7110;SDS011;3597;42.650;23.386;2022-10-16T05:34:58;1.87;;;1.80;;
7110;SDS011;3597;42.650;23.386;2022-10-16T05:37:24;1.40;;;1.40;;
7110;SDS011;3597;42.650;23.386;2022-10-16T05:39:50;2.00;;;2.00;;
7110;SDS011;3597;42.650;23.386;2022-10-16T05:42:16;1.80;;;1.80;;
7110;SDS011;3597;42.650;23.386;2022-10-16T05:44:41;2.10;;;2.10;;
7110;SDS011;3597;42.650;23.386;2022-10-16T05:47:06;1.73;;;1.73;;
7110;SDS011;3597;42.650;23.386;2022-10-16T05:49:32;1.87;;;1.87;;
7110;SDS011;3597;42.650;23.386;2022-10-16T05:51:57;2.23;;;2.13;;
7110;SDS011;3597;42.650;23.386;2022-10-16T05:54:23;1.77;;;1.77;;
7110;SDS011;3597;42.650;23.386;2022-10-16T05:56:48;2.10;;;2.10;;
7110;SDS011;3597;42.650;23.386;2022-10-16T05:59:13;2.03;;;2.03;;
7110;SDS011;3597;42.650;23.386;2022-10-16T06:01:39;2.40;;;2.40;;
7110;SDS011;3597;42.650;23.386;2022-10-16T06:04:04;2.03;;;2.03;;
7110;SDS011;3597;42.650;23.386;2022-10-16T06:06:30;2.07;;;2.07;;
7110;SDS011;3597;42.650;23.386;2022-10-16T06:08:56;1.70;;;1.70;;
7110;SDS011;3597;42.650;23.386;2022-10-16T06:11:26;2.20;;;2.20;;
7110;SDS011;3597;42.650;23.386;2022-10-16T06:13:54;1.93;;;1.93;;
7110;SDS011;3597;42.650;23.386;2022-10-16T06:16:21;2.10;;;2.10;;
7110;SDS011;3597;42.650;23.386;2022-10-16T06:18:48;2.77;;;2.70;;
7110;SDS011;3597;42.650;23.386;2022-10-16T06:21:16;4.20;;;4.20;;
7110;SDS011;3597;42.650;23.386;2022-10-16T06:23:43;3.73;;;3.73;;
7110;SDS011;3597;42.650;23.386;2022-10-16T06:26:11;2.80;;;2.80;;
7110;SDS011;3597;42.650;23.386;2022-10-16T06:28:38;3.03;;;3.03;;
7110;SDS011;3597;42.650;23.386;2022-10-16T06:31:04;2.60;;;2.57;;
7110;SDS011;3597;42.650;23.386;2022-10-16T06:33:31;2.10;;;2.10;;
7110;SDS011;3597;42.650;23.386;2022-10-16T06:36:00;2.20;;;2.20;;
7110;SDS011;3597;42.650;23.386;2022-10-16T06:38:26;2.00;;;2.00;;
7110;SDS011;3597;42.650;23.386;2022-10-16T06:40:53;2.10;;;2.10;;
7110;SDS011;3597;42.650;23.386;2022-10-16T06:43:18;1.90;;;1.90;;
7110;SDS011;3597;42.650;23.386;2022-10-16T06:45:49;2.17;;;2.17;;
7110;SDS011;3597;42.650;23.386;2022-10-16T06:48:17;2.40;;;2.40;;
7110;SDS011;3597;42.650;23.386;2022-10-16T06:50:43;2.33;;;2.33;;
7110;SDS011;3597;42.650;23.386;2022-10-16T06:53:08;2.60;;;2.60;;
7110;SDS011;3597;42.650;23.386;2022-10-16T06:55:33;2.40;;;2.40;;
7110;SDS011;3597;42.650;23.386;2022-10-16T06:57:59;2.83;;;2.83;;
7110;SDS011;3597;42.650;23.386;2022-10-16T07:00:24;2.60;;;2.60;;
7110;SDS011;3597;42.650;23.386;2022-10-16T07:02:49;2.77;;;2.77;;
7110;SDS011;3597;42.650;23.386;2022-10-16T07:05:15;2.50;;;2.50;;
7110;SDS011;3597;42.650;23.386;2022-10-16T07:07:40;2.30;;;2.30;;
7110;SDS011;3597;42.650;23.386;2022-10-16T07:10:06;2.30;;;2.30;;
7110;SDS011;3597;42.650;23.386;2022-10-16T07:12:31;2.70;;;2.70;;
7110;SDS011;3597;42.650;23.386;2022-10-16T07:14:57;2.80;;;2.70;;
7110;SDS011;3597;42.650;23.386;2022-10-16T07:17:22;3.00;;;2.90;;
7110;SDS011;3597;42.650;23.386;2022-10-16T07:19:47;2.80;;;2.80;;
7110;SDS011;3597;42.650;23.386;2022-10-16T07:22:13;2.70;;;2.70;;
7110;SDS011;3597;42.650;23.386;2022-10-16T07:24:38;3.00;;;2.90;;
7110;SDS011;3597;42.650;23.386;2022-10-16T07:27:03;3.00;;;2.90;;
7110;SDS011;3597;42.650;23.386;2022-10-16T07:29:29;2.83;;;2.80;;
7110;SDS011;3597;42.650;23.386;2022-10-16T07:31:54;2.80;;;2.70;;
7110;SDS011;3597;42.650;23.386;2022-10-16T07:34:20;2.90;;;2.80;;
7110;SDS011;3597;42.650;23.386;2022-10-16T07:36:50;2.63;;;2.40;;
7110;SDS011;3597;42.650;23.386;2022-10-16T07:39:16;3.10;;;3.00;;
7110;SDS011;3597;42.650;23.386;2022-10-16T07:41:42;2.50;;;2.50;;
7110;SDS011;3597;42.650;23.386;2022-10-16T07:44:07;2.70;;;2.70;;
7110;SDS011;3597;42.650;23.386;2022-10-16T07:46:33;2.93;;;2.83;;
7110;SDS011;3597;42.650;23.386;2022-10-16T07:49:00;3.13;;;3.03;;
7110;SDS011;3597;42.650;23.386;2022-10-16T07:51:26;2.87;;;2.77;;
7110;SDS011;3597;42.650;23.386;2022-10-16T07:53:52;2.50;;;2.50;;
7110;SDS011;3597;42.650;23.386;2022-10-16T07:56:18;2.60;;;2.60;;
7110;SDS011;3597;42.650;23.386;2022-10-16T07:58:44;2.30;;;2.30;;
7110;SDS011;3597;42.650;23.386;2022-10-16T08:01:11;2.50;;;2.50;;
7110;SDS011;3597;42.650;23.386;2022-10-16T08:03:38;2.37;;;2.37;;
7110;SDS011;3597;42.650;23.386;2022-10-16T08:06:06;2.10;;;2.10;;
7110;SDS011;3597;42.650;23.386;2022-10-16T08:08:32;2.63;;;2.57;;
7110;SDS011;3597;42.650;23.386;2022-10-16T08:10:58;2.27;;;2.27;;
7110;SDS011;3597;42.650;23.386;2022-10-16T08:13:23;2.30;;;2.30;;
7110;SDS011;3597;42.650;23.386;2022-10-16T08:15:49;2.33;;;2.33;;
7110;SDS011;3597;42.650;23.386;2022-10-16T08:18:14;2.50;;;2.50;;
7110;SDS011;3597;42.650;23.386;2022-10-16T08:20:41;2.53;;;2.47;;
7110;SDS011;3597;42.650;23.386;2022-10-16T08:23:07;2.30;;;2.30;;
7110;SDS011;3597;42.650;23.386;2022-10-16T08:25:34;2.60;;;2.40;;
7110;SDS011;3597;42.650;23.386;2022-10-16T08:28:02;2.10;;;2.10;;
7110;SDS011;3597;42.650;23.386;2022-10-16T08:30:29;2.00;;;2.00;;
7110;SDS011;3597;42.650;23.386;2022-10-16T08:32:54;2.00;;;2.00;;
7110;SDS011;3597;42.650;23.386;2022-10-16T08:35:20;2.43;;;2.43;;
7110;SDS011;3597;42.650;23.386;2022-10-16T08:37:45;2.20;;;2.00;;
7110;SDS011;3597;42.650;23.386;2022-10-16T08:40:16;1.97;;;1.97;;
7110;SDS011;3597;42.650;23.386;2022-10-16T08:50:25;2.10;;;2.10;;
7110;SDS011;3597;42.650;23.386;2022-10-16T08:52:53;2.00;;;2.00;;
7110;SDS011;3597;42.650;23.386;2022-10-16T08:57:58;2.60;;;2.60;;
7110;SDS011;3597;42.650;23.386;2022-10-16T09:00:24;2.00;;;2.00;;
7110;SDS011;3597;42.650;23.386;2022-10-16T09:08:06;1.97;;;1.97;;
7110;SDS011;3597;42.650;23.386;2022-10-16T09:10:57;1.80;;;1.80;;
7110;SDS011;3597;42.650;23.386;2022-10-16T09:13:31;2.20;;;2.20;;
7110;SDS011;3597;42.650;23.386;2022-10-16T09:18:35;2.00;;;2.00;;
7110;SDS011;3597;42.650;23.386;2022-10-16T09:21:13;2.00;;;2.00;;
7110;SDS011;3597;42.650;23.386;2022-10-16T09:23:43;2.07;;;2.07;;
7110;SDS011;3597;42.650;23.386;2022-10-16T09:26:10;1.80;;;1.80;;
7110;SDS011;3597;42.650;23.386;2022-10-16T09:28:38;1.87;;;1.87;;
7110;SDS011;3597;42.650;23.386;2022-10-16T09:31:04;1.80;;;1.80;;
7110;SDS011;3597;42.650;23.386;2022-10-16T09:33:33;2.00;;;2.00;;
7110;SDS011;3597;42.650;23.386;2022-10-16T09:36:00;1.80;;;1.80;;
7110;SDS011;3597;42.650;23.386;2022-10-16T09:38:32;1.67;;;1.67;;
7110;SDS011;3597;42.650;23.386;2022-10-16T09:40:59;1.70;;;1.70;;
7110;SDS011;3597;42.650;23.386;2022-10-16T09:43:26;1.90;;;1.90;;
7110;SDS011;3597;42.650;23.386;2022-10-16T09:46:07;2.10;;;2.10;;
7110;SDS011;3597;42.650;23.386;2022-10-16T09:48:46;1.80;;;1.80;;
7110;SDS011;3597;42.650;23.386;2022-10-16T09:51:24;1.97;;;1.97;;
7110;SDS011;3597;42.650;23.386;2022-10-16T09:53:53;2.83;;;2.30;;
7110;SDS011;3597;42.650;23.386;2022-10-16T09:56:21;2.10;;;2.10;;
7110;SDS011;3597;42.650;23.386;2022-10-16T09:58:53;1.90;;;1.90;;
7110;SDS011;3597;42.650;23.386;2022-10-16T10:01:20;1.70;;;1.70;;
7110;SDS011;3597;42.650;23.386;2022-10-16T10:03:46;1.93;;;1.93;;
7110;SDS011;3597;42.650;23.386;2022-10-16T10:08:53;1.90;;;1.90;;
7110;SDS011;3597;42.650;23.386;2022-10-16T10:11:35;1.77;;;1.77;;
7110;SDS011;3597;42.650;23.386;2022-10-16T10:14:06;2.00;;;2.00;;
7110;SDS011;3597;42.650;23.386;2022-10-16T10:16:43;2.10;;;2.10;;
7110;SDS011;3597;42.650;23.386;2022-10-16T10:19:16;1.80;;;1.80;;
7110;SDS011;3597;42.650;23.386;2022-10-16T10:21:42;2.27;;;2.27;;
7110;SDS011;3597;42.650;23.386;2022-10-16T10:24:14;2.00;;;2.00;;
7110;SDS011;3597;42.650;23.386;2022-10-16T10:40:02;1.83;;;1.83;;
7110;SDS011;3597;42.650;23.386;2022-10-16T10:42:55;1.90;;;1.90;;
7110;SDS011;3597;42.650;23.386;2022-10-16T10:45:28;1.70;;;1.70;;
7110;SDS011;3597;42.650;23.386;2022-10-16T10:53:42;1.60;;;1.60;;
7110;SDS011;3597;42.650;23.386;2022-10-16T11:07:17;1.80;;;1.80;;
7110;SDS011;3597;42.650;23.386;2022-10-16T11:12:39;1.53;;;1.53;;
7110;SDS011;3597;42.650;23.386;2022-10-16T11:17:54;1.80;;;1.80;;
7110;SDS011;3597;42.650;23.386;2022-10-16T11:20:29;1.73;;;1.73;;
7110;SDS011;3597;42.650;23.386;2022-10-16T11:23:00;1.87;;;1.87;;
7110;SDS011;3597;42.650;23.386;2022-10-16T11:25:30;2.00;;;2.00;;
7110;SDS011;3597;42.650;23.386;2022-10-16T11:30:39;2.00;;;2.00;;
7110;SDS011;3597;42.650;23.386;2022-10-16T11:33:13;1.90;;;1.90;;
7110;SDS011;3597;42.650;23.386;2022-10-16T11:38:43;2.20;;;2.20;;
7110;SDS011;3597;42.650;23.386;2022-10-16T11:46:40;2.03;;;2.03;;
7110;SDS011;3597;42.650;23.386;2022-10-16T11:49:18;2.47;;;2.47;;
7110;SDS011;3597;42.650;23.386;2022-10-16T11:51:59;1.90;;;1.90;;
7110;SDS011;3597;42.650;23.386;2022-10-16T11:54:47;2.30;;;2.30;;
7110;SDS011;3597;42.650;23.386;2022-10-16T11:57:23;1.87;;;1.87;;
7110;SDS011;3597;42.650;23.386;2022-10-16T12:07:51;2.30;;;2.30;;
7110;SDS011;3597;42.650;23.386;2022-10-16T12:10:29;2.47;;;2.47;;
7110;SDS011;3597;42.650;23.386;2022-10-16T12:13:01;2.17;;;2.17;;
7110;SDS011;3597;42.650;23.386;2022-10-16T12:15:29;1.90;;;1.90;;
7110;SDS011;3597;42.650;23.386;2022-10-16T12:17:56;2.23;;;2.23;;
7110;SDS011;3597;42.650;23.386;2022-10-16T12:22:53;2.20;;;2.20;;
7110;SDS011;3597;42.650;23.386;2022-10-16T12:28:02;2.00;;;2.00;;
7110;SDS011;3597;42.650;23.386;2022-10-16T12:30:52;1.60;;;1.60;;
7110;SDS011;3597;42.650;23.386;2022-10-16T12:35:58;1.80;;;1.80;;
7110;SDS011;3597;42.650;23.386;2022-10-16T12:38:38;1.80;;;1.80;;
7110;SDS011;3597;42.650;23.386;2022-10-16T12:41:10;1.73;;;1.73;;
7110;SDS011;3597;42.650;23.386;2022-10-16T12:48:36;1.97;;;1.97;;
7110;SDS011;3597;42.650;23.386;2022-10-16T12:51:12;2.00;;;2.00;;
7110;SDS011;3597;42.650;23.386;2022-10-16T13:07:25;2.00;;;2.00;;
7110;SDS011;3597;42.650;23.386;2022-10-16T13:10:01;2.73;;;2.73;;
7110;SDS011;3597;42.650;23.386;2022-10-16T13:15:02;2.17;;;2.17;;
7110;SDS011;3597;42.650;23.386;2022-10-16T13:20:46;3.57;;;3.57;;
7110;SDS011;3597;42.650;23.386;2022-10-16T13:28:38;2.77;;;2.77;;
7110;SDS011;3597;42.650;23.386;2022-10-16T13:31:04;2.60;;;2.60;;
7110;SDS011;3597;42.650;23.386;2022-10-16T13:33:32;2.17;;;2.17;;
7110;SDS011;3597;42.650;23.386;2022-10-16T13:35:59;2.17;;;2.17;;
7110;SDS011;3597;42.650;23.386;2022-10-16T13:38:26;1.70;;;1.70;;
7110;SDS011;3597;42.650;23.386;2022-10-16T13:41:12;1.90;;;1.90;;
7110;SDS011;3597;42.650;23.386;2022-10-16T13:43:41;1.90;;;1.90;;
7110;SDS011;3597;42.650;23.386;2022-10-16T13:46:21;1.87;;;1.87;;
7110;SDS011;3597;42.650;23.386;2022-10-16T13:48:57;2.10;;;2.10;;
7110;SDS011;3597;42.650;23.386;2022-10-16T13:51:26;2.10;;;2.10;;
7110;SDS011;3597;42.650;23.386;2022-10-16T13:53:53;1.87;;;1.87;;
7110;SDS011;3597;42.650;23.386;2022-10-16T13:56:20;2.00;;;2.00;;
7110;SDS011;3597;42.650;23.386;2022-10-16T13:58:57;2.00;;;2.00;;
7110;SDS011;3597;42.650;23.386;2022-10-16T14:01:29;2.00;;;2.00;;
7110;SDS011;3597;42.650;23.386;2022-10-16T14:04:04;1.90;;;1.90;;
7110;SDS011;3597;42.650;23.386;2022-10-16T14:06:30;2.27;;;2.20;;
7110;SDS011;3597;42.650;23.386;2022-10-16T14:09:12;2.10;;;2.10;;
7110;SDS011;3597;42.650;23.386;2022-10-16T14:11:46;1.70;;;1.70;;
7110;SDS011;3597;42.650;23.386;2022-10-16T14:14:20;1.70;;;1.70;;
7110;SDS011;3597;42.650;23.386;2022-10-16T14:16:46;2.00;;;2.00;;
7110;SDS011;3597;42.650;23.386;2022-10-16T14:19:20;1.70;;;1.70;;
7110;SDS011;3597;42.650;23.386;2022-10-16T14:21:46;1.97;;;1.97;;
7110;SDS011;3597;42.650;23.386;2022-10-16T14:24:12;1.70;;;1.70;;
7110;SDS011;3597;42.650;23.386;2022-10-16T14:26:42;1.70;;;1.60;;
7110;SDS011;3597;42.650;23.386;2022-10-16T14:29:10;1.57;;;1.57;;
7110;SDS011;3597;42.650;23.386;2022-10-16T14:31:37;1.60;;;1.60;;
7110;SDS011;3597;42.650;23.386;2022-10-16T14:34:04;1.90;;;1.80;;
7110;SDS011;3597;42.650;23.386;2022-10-16T14:36:47;1.60;;;1.60;;
7110;SDS011;3597;42.650;23.386;2022-10-16T14:39:22;1.67;;;1.67;;
7110;SDS011;3597;42.650;23.386;2022-10-16T14:41:49;1.70;;;1.70;;
7110;SDS011;3597;42.650;23.386;2022-10-16T14:44:17;1.60;;;1.60;;
7110;SDS011;3597;42.650;23.386;2022-10-16T14:46:43;1.70;;;1.70;;
7110;SDS011;3597;42.650;23.386;2022-10-16T14:51:35;1.80;;;1.70;;
7110;SDS011;3597;42.650;23.386;2022-10-16T14:54:00;1.73;;;1.73;;
7110;SDS011;3597;42.650;23.386;2022-10-16T14:56:32;1.70;;;1.70;;
7110;SDS011;3597;42.650;23.386;2022-10-16T14:58:59;1.80;;;1.80;;
7110;SDS011;3597;42.650;23.386;2022-10-16T15:01:26;1.83;;;1.83;;
7110;SDS011;3597;42.650;23.386;2022-10-16T15:03:51;1.67;;;1.67;;
7110;SDS011;3597;42.650;23.386;2022-10-16T15:06:20;1.60;;;1.60;;
7110;SDS011;3597;42.650;23.386;2022-10-16T15:08:45;1.80;;;1.80;;
7110;SDS011;3597;42.650;23.386;2022-10-16T15:11:12;1.53;;;1.53;;
7110;SDS011;3597;42.650;23.386;2022-10-16T15:13:39;1.50;;;1.50;;
7110;SDS011;3597;42.650;23.386;2022-10-16T15:16:06;1.90;;;1.90;;
7110;SDS011;3597;42.650;23.386;2022-10-16T15:18:34;1.80;;;1.80;;
7110;SDS011;3597;42.650;23.386;2022-10-16T15:21:00;1.60;;;1.60;;
7110;SDS011;3597;42.650;23.386;2022-10-16T15:23:25;1.60;;;1.60;;
7110;SDS011;3597;42.650;23.386;2022-10-16T15:25:52;1.50;;;1.50;;
7110;SDS011;3597;42.650;23.386;2022-10-16T15:28:19;1.90;;;1.90;;
7110;SDS011;3597;42.650;23.386;2022-10-16T15:30:45;1.57;;;1.57;;
7110;SDS011;3597;42.650;23.386;2022-10-16T15:33:13;1.73;;;1.73;;
7110;SDS011;3597;42.650;23.386;2022-10-16T15:35:48;1.80;;;1.70;;
7110;SDS011;3597;42.650;23.386;2022-10-16T15:38:16;1.70;;;1.70;;
7110;SDS011;3597;42.650;23.386;2022-10-16T15:40:42;1.60;;;1.60;;
7110;SDS011;3597;42.650;23.386;2022-10-16T15:43:08;1.93;;;1.93;;
7110;SDS011;3597;42.650;23.386;2022-10-16T15:45:33;1.93;;;1.93;;
7110;SDS011;3597;42.650;23.386;2022-10-16T15:47:59;1.90;;;1.90;;
7110;SDS011;3597;42.650;23.386;2022-10-16T15:50:24;2.10;;;2.10;;
7110;SDS011;3597;42.650;23.386;2022-10-16T15:52:50;2.03;;;1.93;;
7110;SDS011;3597;42.650;23.386;2022-10-16T15:55:16;1.70;;;1.70;;
7110;SDS011;3597;42.650;23.386;2022-10-16T15:57:42;1.73;;;1.73;;
7110;SDS011;3597;42.650;23.386;2022-10-16T16:00:11;2.00;;;1.93;;
7110;SDS011;3597;42.650;23.386;2022-10-16T16:02:40;1.87;;;1.87;;
7110;SDS011;3597;42.650;23.386;2022-10-16T16:05:07;2.40;;;2.30;;
7110;SDS011;3597;42.650;23.386;2022-10-16T16:07:34;1.80;;;1.80;;
7110;SDS011;3597;42.650;23.386;2022-10-16T16:10:00;2.27;;;2.23;;
7110;SDS011;3597;42.650;23.386;2022-10-16T16:12:26;2.37;;;2.37;;
7110;SDS011;3597;42.650;23.386;2022-10-16T16:14:51;2.07;;;2.07;;
7110;SDS011;3597;42.650;23.386;2022-10-16T16:17:17;2.30;;;2.30;;
7110;SDS011;3597;42.650;23.386;2022-10-16T16:19:43;2.13;;;2.10;;
7110;SDS011;3597;42.650;23.386;2022-10-16T16:22:08;2.20;;;2.10;;
7110;SDS011;3597;42.650;23.386;2022-10-16T16:24:33;2.37;;;2.33;;
7110;SDS011;3597;42.650;23.386;2022-10-16T16:26:59;2.40;;;2.30;;
7110;SDS011;3597;42.650;23.386;2022-10-16T16:29:24;2.10;;;2.10;;
7110;SDS011;3597;42.650;23.386;2022-10-16T16:31:50;2.90;;;2.80;;
7110;SDS011;3597;42.650;23.386;2022-10-16T16:34:21;2.83;;;2.63;;
7110;SDS011;3597;42.650;23.386;2022-10-16T16:36:47;2.63;;;2.63;;
7110;SDS011;3597;42.650;23.386;2022-10-16T16:39:12;2.87;;;2.77;;
7110;SDS011;3597;42.650;23.386;2022-10-16T16:41:38;2.50;;;2.50;;
7110;SDS011;3597;42.650;23.386;2022-10-16T16:44:07;3.10;;;3.00;;
7110;SDS011;3597;42.650;23.386;2022-10-16T16:46:34;2.83;;;2.73;;
7110;SDS011;3597;42.650;23.386;2022-10-16T16:49:00;2.30;;;2.30;;
7110;SDS011;3597;42.650;23.386;2022-10-16T16:51:25;2.50;;;2.50;;
7110;SDS011;3597;42.650;23.386;2022-10-16T16:53:52;2.27;;;2.27;;
7110;SDS011;3597;42.650;23.386;2022-10-16T16:56:18;2.40;;;2.40;;
7110;SDS011;3597;42.650;23.386;2022-10-16T16:58:45;3.90;;;2.60;;
7110;SDS011;3597;42.650;23.386;2022-10-16T17:01:11;2.30;;;2.20;;
7110;SDS011;3597;42.650;23.386;2022-10-16T17:03:36;3.10;;;3.00;;
7110;SDS011;3597;42.650;23.386;2022-10-16T17:06:04;2.50;;;2.40;;
7110;SDS011;3597;42.650;23.386;2022-10-16T17:08:31;2.53;;;2.53;;
7110;SDS011;3597;42.650;23.386;2022-10-16T17:10:56;2.60;;;2.60;;
7110;SDS011;3597;42.650;23.386;2022-10-16T17:13:26;2.90;;;2.80;;